createdAt,value
2022-09-20T00:00:52.737Z,101231.38
2022-09-20T00:03:22.849Z,101221.84
2022-09-20T00:05:55.075Z,101227.94
2022-09-20T00:08:24.620Z,101231.47
2022-09-20T00:10:55.240Z,101230.56
2022-09-20T00:13:24.795Z,101231.38
2022-09-20T00:15:54.308Z,101232.16
2022-09-20T00:18:23.909Z,101226.00
2022-09-20T00:20:56.294Z,101223.44
2022-09-20T00:23:26.028Z,101224.34
2022-09-20T00:25:59.390Z,101227.75
2022-09-20T00:28:29.762Z,101224.25
2022-09-20T00:30:59.842Z,101230.31
2022-09-20T00:33:49.912Z,101236.47
2022-09-20T00:36:19.506Z,101237.34
2022-09-20T00:38:49.160Z,101237.38
2022-09-20T00:41:19.011Z,101234.72
2022-09-20T00:43:49.745Z,101239.25
2022-09-20T00:46:25.573Z,101234.88
2022-09-20T00:48:57.899Z,101244.59
2022-09-20T00:51:32.216Z,101241.13
2022-09-20T00:54:04.004Z,101244.63
2022-09-20T00:56:36.091Z,101245.59
2022-09-20T00:59:12.394Z,101251.72
2022-09-20T01:01:42.142Z,101244.78
2022-09-20T01:04:11.998Z,101238.69
2022-09-20T01:06:44.938Z,101237.00
2022-09-20T01:09:14.560Z,101237.91
2022-09-20T01:11:44.475Z,101238.00
2022-09-20T01:14:17.151Z,101238.91
2022-09-20T01:16:46.807Z,101237.16
2022-09-20T01:19:21.582Z,101232.81
2022-09-20T01:21:54.815Z,101237.25
2022-09-20T01:24:27.831Z,101234.63
2022-09-20T01:27:13.800Z,101236.41
2022-09-20T01:30:02.184Z,101226.78
2022-09-20T01:32:49.047Z,101240.97
2022-09-20T01:35:20.074Z,101240.16
2022-09-20T01:38:00.190Z,101238.44
2022-09-20T01:40:38.204Z,101242.78
2022-09-20T01:43:14.733Z,101240.97
2022-09-20T01:45:50.194Z,101235.69
2022-09-20T01:48:28.744Z,101242.91
2022-09-20T01:51:19.022Z,101237.69
2022-09-20T01:54:21.199Z,101236.81
2022-09-20T01:57:13.668Z,101244.03
2022-09-20T02:00:11.037Z,101258.38
2022-09-20T02:03:12.467Z,101246.19
2022-09-20T02:06:05.398Z,101240.22
2022-09-20T02:08:46.838Z,101237.59
2022-09-20T02:11:19.043Z,101243.75
2022-09-20T02:14:01.942Z,101243.03
2022-09-20T02:16:46.899Z,101235.31
2022-09-20T02:19:30.980Z,101235.41
2022-09-20T02:22:12.924Z,101239.00
2022-09-20T02:24:48.586Z,101232.91
2022-09-20T02:27:27.002Z,101230.28
2022-09-20T02:30:15.739Z,101229.41
2022-09-20T02:32:58.608Z,101224.16
2022-09-20T02:35:41.381Z,101233.72
2022-09-20T02:38:34.338Z,101240.72
2022-09-20T02:41:34.646Z,101229.53
2022-09-20T02:44:09.961Z,101233.88
2022-09-20T02:46:44.968Z,101233.09
2022-09-20T02:49:20.166Z,101236.69
2022-09-20T02:51:55.222Z,101235.03
2022-09-20T02:54:34.603Z,101232.44
2022-09-20T02:57:08.562Z,101234.25
2022-09-20T02:59:43.307Z,101230.81
2022-09-20T03:02:21.813Z,101229.19
2022-09-20T03:04:59.251Z,101234.50
2022-09-20T03:07:38.109Z,101232.88
2022-09-20T03:10:17.929Z,101229.38
2022-09-20T03:12:57.265Z,101235.59
2022-09-20T03:15:33.728Z,101228.69
2022-09-20T03:18:10.530Z,101228.75
2022-09-20T03:20:49.346Z,101239.34
2022-09-20T03:23:34.852Z,101233.22
2022-09-20T03:26:12.384Z,101232.41
2022-09-20T03:28:53.065Z,101235.03
2022-09-20T03:31:35.474Z,101241.31
2022-09-20T03:34:12.364Z,101244.03
2022-09-20T03:36:55.875Z,101243.19
2022-09-20T03:39:44.870Z,101241.47
2022-09-20T03:42:21.366Z,101237.09
2022-09-20T03:45:17.167Z,101237.16
2022-09-20T03:48:02.516Z,101236.28
2022-09-20T03:50:44.524Z,101235.47
2022-09-20T03:53:49.124Z,101233.75
2022-09-20T03:56:31.764Z,101228.53
2022-09-20T03:59:17.351Z,101231.16
2022-09-20T04:02:14.252Z,101232.13
2022-09-20T04:04:48.675Z,101236.53
2022-09-20T04:07:23.634Z,101236.59
2022-09-20T04:10:06.854Z,101232.25
2022-09-20T04:12:45.635Z,101229.59
2022-09-20T04:15:26.538Z,101235.72
2022-09-20T04:18:02.689Z,101236.63
2022-09-20T04:20:38.646Z,101233.97
2022-09-20T04:23:18.291Z,101237.53
2022-09-20T04:25:49.887Z,101235.72
2022-09-20T04:28:25.535Z,101236.69
2022-09-20T04:30:57.893Z,101240.19
2022-09-20T04:33:30.237Z,101239.31
2022-09-20T04:36:18.638Z,101244.56
2022-09-20T04:38:50.044Z,101246.28
2022-09-20T04:41:39.170Z,101243.66
2022-09-20T04:44:30.473Z,101238.34
2022-09-20T04:47:44.463Z,101245.31
2022-09-20T04:50:42.182Z,101243.56
2022-09-20T04:53:34.357Z,101248.78
2022-09-20T04:56:04.635Z,101247.00
2022-09-20T04:58:49.747Z,101249.59
2022-09-20T05:01:49.096Z,101250.41
2022-09-20T05:04:44.430Z,101247.72
2022-09-20T05:07:46.420Z,101256.31
2022-09-20T05:10:45.203Z,101262.44
2022-09-20T05:13:23.440Z,101254.56
2022-09-20T05:15:59.165Z,101252.78
2022-09-20T05:18:59.451Z,101251.97
2022-09-20T05:21:46.530Z,101255.38
2022-09-20T05:24:27.544Z,101252.72
2022-09-20T05:27:06.222Z,101248.25
2022-09-20T05:29:42.014Z,101258.69
2022-09-20T05:32:15.239Z,101267.41
2022-09-20T05:34:51.547Z,101264.78
2022-09-20T05:37:31.518Z,101274.31
2022-09-20T05:40:07.132Z,101268.16
2022-09-20T05:42:44.243Z,101274.25
2022-09-20T05:45:25.719Z,101276.81
2022-09-20T05:47:59.602Z,101285.47
2022-09-20T05:50:42.914Z,101280.19
2022-09-20T05:53:36.674Z,101280.88
2022-09-20T05:56:10.284Z,101282.56
2022-09-20T05:58:58.165Z,101287.00
2022-09-20T06:01:30.194Z,101285.19
2022-09-20T06:04:08.381Z,101288.59
2022-09-20T06:06:52.657Z,101297.19
2022-09-20T06:09:32.792Z,101295.34
2022-09-20T06:12:38.385Z,101294.38
2022-09-20T06:15:19.638Z,101289.00
2022-09-20T06:17:56.247Z,101294.06
2022-09-20T06:20:31.119Z,101292.22
2022-09-20T06:23:03.904Z,101287.81
2022-09-20T06:25:42.879Z,101289.47
2022-09-20T06:28:18.610Z,101298.28
2022-09-20T06:30:50.683Z,101297.38
2022-09-20T06:33:22.383Z,101299.88
2022-09-20T06:35:58.846Z,101297.19
2022-09-20T06:38:56.307Z,101299.69
2022-09-20T06:41:32.464Z,101292.50
2022-09-20T06:44:07.374Z,101297.56
2022-09-20T06:46:38.619Z,101292.09
2022-09-20T06:49:09.674Z,101297.16
2022-09-20T06:51:41.440Z,101294.28
2022-09-20T06:54:19.047Z,101298.38
2022-09-20T06:56:49.013Z,101298.13
2022-09-20T06:59:18.568Z,101304.88
2022-09-20T07:01:48.132Z,101305.47
2022-09-20T07:04:17.730Z,101305.19
2022-09-20T07:06:47.550Z,101312.81
2022-09-20T07:09:19.916Z,101307.31
2022-09-20T07:11:49.501Z,101307.94
2022-09-20T07:14:19.382Z,101314.78
2022-09-20T07:16:48.973Z,101322.44
2022-09-20T07:19:19.014Z,101320.53
2022-09-20T07:21:48.732Z,101331.03
2022-09-20T07:24:20.883Z,101326.66
2022-09-20T07:27:00.903Z,101336.22
2022-09-20T07:29:31.389Z,101334.28
2022-09-20T07:32:01.043Z,101330.72
2022-09-20T07:34:30.902Z,101334.91
2022-09-20T07:37:00.764Z,101341.78
2022-09-20T07:39:33.015Z,101339.88
2022-09-20T07:42:06.210Z,101326.56
2022-09-20T07:44:36.361Z,101335.22
2022-09-20T07:47:06.359Z,101327.13
2022-09-20T07:49:36.018Z,101328.78
2022-09-20T07:52:06.147Z,101331.91
2022-09-20T07:54:38.637Z,101335.25
2022-09-20T07:57:08.317Z,101334.16
2022-09-20T07:59:37.910Z,101328.63
2022-09-20T08:02:07.616Z,101331.13
2022-09-20T08:04:37.255Z,101336.25
2022-09-20T08:07:06.978Z,101334.25
2022-09-20T08:09:39.156Z,101332.34
2022-09-20T08:14:58.697Z,101333.59
2022-09-20T08:17:28.426Z,101338.75
2022-09-20T08:19:57.984Z,101348.97
2022-09-20T08:22:28.194Z,101343.50
2022-09-20T08:25:00.384Z,101339.66
2022-09-20T08:27:29.922Z,101338.56
2022-09-20T08:30:01.140Z,101343.69
2022-09-20T08:32:30.686Z,101338.16
2022-09-20T08:35:00.218Z,101340.69
2022-09-20T08:37:30.229Z,101343.22
2022-09-20T08:40:02.445Z,101342.69
2022-09-20T08:42:36.616Z,101345.13
2022-09-20T08:45:22.251Z,101343.16
2022-09-20T08:47:58.507Z,101342.22
2022-09-20T08:50:29.090Z,101344.00
2022-09-20T08:53:00.665Z,101346.63
2022-09-20T08:55:37.387Z,101347.19
2022-09-20T08:58:09.116Z,101354.00
2022-09-20T09:00:40.904Z,101351.13
2022-09-20T09:03:16.894Z,101356.19
2022-09-20T09:05:48.306Z,101350.22
2022-09-20T09:08:21.313Z,101362.28
2022-09-20T09:10:56.444Z,101363.56
2022-09-20T09:13:28.861Z,101357.22
2022-09-20T09:16:01.178Z,101354.28
2022-09-20T09:18:36.175Z,101357.50
2022-09-20T09:21:07.864Z,101361.84
2022-09-20T09:23:43.913Z,101363.47
2022-09-20T09:26:22.271Z,101358.81
2022-09-20T09:29:17.092Z,101354.09
2022-09-20T09:31:47.512Z,101353.91
2022-09-20T09:34:33.450Z,101359.94
2022-09-20T09:37:03.021Z,101364.88
2022-09-20T09:39:34.402Z,101364.56
2022-09-20T09:42:23.780Z,101367.66
2022-09-20T09:44:53.380Z,101359.78
2022-09-20T09:47:27.592Z,101361.25
2022-09-20T09:50:02.634Z,101357.50
2022-09-20T09:52:36.425Z,101355.59
2022-09-20T09:55:07.536Z,101355.38
2022-09-20T09:57:51.960Z,101353.53
2022-09-20T10:00:23.141Z,101353.59
2022-09-20T10:03:03.642Z,101360.59
2022-09-20T11:11:37.736Z,101367.91
2022-09-20T11:14:10.704Z,101366.84
2022-09-20T11:16:43.487Z,101365.44
2022-09-20T11:19:20.575Z,101371.97
2022-09-20T11:21:55.437Z,101374.53
2022-09-20T11:24:36.527Z,101364.91
2022-09-20T11:27:10.796Z,101371.22
2022-09-20T11:29:43.545Z,101368.72
2022-09-20T11:32:17.215Z,101365.91
2022-09-20T11:34:53.924Z,101361.47
2022-09-20T11:37:28.296Z,101372.09
2022-09-20T11:39:59.415Z,101367.63
2022-09-20T11:42:33.562Z,101363.19
2022-09-20T11:45:04.009Z,101368.41
2022-09-20T11:47:53.980Z,101362.19
2022-09-20T11:50:57.716Z,101362.06
2022-09-20T11:53:59.390Z,101362.00
2022-09-20T11:56:32.668Z,101374.34
2022-09-20T11:59:04.737Z,101366.00
2022-09-20T12:01:37.429Z,101368.53
2022-09-20T12:04:32.395Z,101371.97
2022-09-20T12:07:10.517Z,101365.50
2022-09-20T12:09:47.640Z,101360.88
2022-09-20T12:12:21.619Z,101372.19
2022-09-20T12:14:58.787Z,101358.72
2022-09-20T12:18:09.533Z,101353.25
2022-09-20T12:21:08.998Z,101352.66
2022-09-20T12:24:12.215Z,101360.69
2022-09-20T12:26:51.249Z,101361.09
2022-09-20T12:29:55.044Z,101354.84
2022-09-20T12:32:46.483Z,101357.66
2022-09-20T12:35:59.737Z,101355.31
2022-09-20T12:38:38.054Z,101353.03
2022-09-20T12:41:17.348Z,101349.66
2022-09-20T12:44:07.398Z,101343.00
2022-09-20T12:46:44.870Z,101344.50
2022-09-20T12:50:00.064Z,101341.66
2022-09-20T12:53:04.506Z,101333.84
2022-09-20T12:55:55.717Z,101332.06
2022-09-20T12:58:32.687Z,101337.28
2022-09-20T13:01:35.245Z,101338.41
2022-09-20T13:04:56.727Z,101340.41
2022-09-20T13:07:41.300Z,101332.38
2022-09-20T13:10:30.331Z,101329.78
2022-09-20T13:13:10.234Z,101338.06
2022-09-20T13:15:41.348Z,101339.00
2022-09-20T13:18:16.871Z,101342.38
2022-09-20T13:20:47.743Z,101336.75
2022-09-20T13:23:23.730Z,101335.91
2022-09-20T13:25:54.584Z,101336.69
2022-09-20T13:28:34.773Z,101332.28
2022-09-20T13:31:29.658Z,101336.59
2022-09-20T13:34:32.662Z,101330.53
2022-09-20T13:37:06.804Z,101333.22
2022-09-20T13:39:39.179Z,101328.31
2022-09-20T13:42:20.162Z,101326.59
2022-09-20T13:44:51.734Z,101320.63
2022-09-20T13:47:30.071Z,101320.44
2022-09-20T13:50:05.465Z,101319.75
2022-09-20T13:52:49.096Z,101325.59
2022-09-20T13:55:33.458Z,101332.28
2022-09-20T13:58:06.022Z,101329.66
2022-09-20T14:00:37.160Z,101327.88
2022-09-20T14:03:07.172Z,101331.16
2022-09-20T14:05:37.057Z,101329.34
2022-09-20T14:08:09.238Z,101329.53
2022-09-20T14:10:42.943Z,101327.00
2022-09-20T14:13:18.506Z,101327.41
2022-09-20T14:15:49.249Z,101331.19
2022-09-20T14:18:21.298Z,101325.19
2022-09-20T14:20:51.310Z,101329.78
2022-09-20T14:23:28.723Z,101334.41
2022-09-20T14:26:20.272Z,101335.59
2022-09-20T14:28:50.043Z,101328.56
2022-09-20T14:31:23.492Z,101338.41
2022-09-20T14:33:55.475Z,101338.47
2022-09-20T14:36:27.376Z,101337.78
2022-09-20T14:39:02.243Z,101330.91
2022-09-20T14:41:37.638Z,101330.03
2022-09-20T14:44:09.277Z,101329.34
2022-09-20T14:46:40.069Z,101335.53
2022-09-20T14:49:23.202Z,101334.75
2022-09-20T14:51:53.124Z,101341.00
2022-09-20T14:54:32.387Z,101339.34
2022-09-20T14:57:02.335Z,101341.31
2022-09-20T14:59:40.018Z,101345.91
2022-09-20T15:02:15.873Z,101351.22
2022-09-20T15:04:54.876Z,101352.19
2022-09-20T15:07:24.728Z,101347.88
2022-09-20T15:09:57.009Z,101352.25
2022-09-20T15:12:26.553Z,101349.91
2022-09-20T15:14:56.217Z,101351.88
2022-09-20T15:17:25.810Z,101354.44
2022-09-20T15:19:55.378Z,101358.22
2022-09-20T15:22:25.026Z,101359.75
2022-09-20T15:24:57.140Z,101361.16
2022-09-20T15:27:28.458Z,101356.84
2022-09-20T15:29:58.151Z,101361.38
2022-09-20T15:32:27.834Z,101364.13
2022-09-20T15:34:57.443Z,101357.19
2022-09-20T15:37:27.105Z,101363.34
2022-09-20T15:39:59.314Z,101357.22
2022-09-20T15:42:29.001Z,101351.06
2022-09-20T15:44:58.603Z,101353.97
2022-09-20T15:47:28.498Z,101355.88
2022-09-20T15:49:59.875Z,101350.53
2022-09-20T15:52:29.673Z,101354.19
2022-09-20T15:55:03.687Z,101348.00
2022-09-20T15:57:34.151Z,101355.97
2022-09-20T16:00:04.018Z,101361.22
2022-09-20T16:02:38.038Z,101362.22
2022-09-20T16:05:10.032Z,101357.84
2022-09-20T16:07:39.781Z,101365.03
2022-09-20T16:10:12.408Z,101369.50
2022-09-20T16:12:41.943Z,101359.81
2022-09-20T16:15:14.495Z,101359.81
2022-09-20T16:18:12.123Z,101364.41
2022-09-20T16:20:43.048Z,101374.25
2022-09-20T16:23:13.795Z,101364.47
2022-09-20T16:25:50.850Z,101361.91
2022-09-20T16:28:21.438Z,101366.41
2022-09-20T16:31:00.140Z,101362.13
2022-09-20T16:33:30.858Z,101369.31
2022-09-20T16:36:02.565Z,101370.38
2022-09-20T16:38:32.446Z,101373.19
2022-09-20T16:41:05.675Z,101374.13
2022-09-20T16:43:35.815Z,101374.19
2022-09-20T16:46:06.327Z,101370.72
2022-09-20T16:48:36.888Z,101373.56
2022-09-20T16:51:08.618Z,101377.16
2022-09-20T16:53:39.842Z,101372.81
2022-09-20T16:56:21.885Z,101380.13
2022-09-20T16:58:52.408Z,101380.28
2022-09-20T17:01:23.681Z,101380.34
2022-09-20T17:03:54.927Z,101390.25
2022-09-20T17:06:26.301Z,101386.81
2022-09-20T17:08:59.132Z,101393.06
2022-09-20T17:11:33.000Z,101399.34
2022-09-20T17:14:02.576Z,101403.00
2022-09-20T17:16:34.158Z,101400.50
2022-09-20T17:19:07.362Z,101403.44
2022-09-20T17:21:38.716Z,101401.84
2022-09-20T17:24:09.715Z,101410.88
2022-09-20T17:26:44.490Z,101404.50
2022-09-20T17:29:17.465Z,101408.22
2022-09-20T17:31:54.572Z,101414.81
2022-09-20T17:34:26.283Z,101411.41
2022-09-20T17:36:56.821Z,101423.13
2022-09-20T17:39:26.719Z,101424.16
2022-09-20T17:41:58.911Z,101422.53
2022-09-20T17:44:28.645Z,101430.81
2022-09-20T17:46:58.955Z,101428.31
2022-09-20T17:49:30.186Z,101433.88
2022-09-20T17:51:59.834Z,101435.78
2022-09-20T17:54:29.502Z,101442.22
2022-09-20T17:57:01.733Z,101442.41
2022-09-20T17:59:32.437Z,101443.50
2022-09-20T18:02:01.997Z,101438.50
2022-09-20T18:04:31.637Z,101440.47
2022-09-20T18:07:01.770Z,101446.00
2022-09-20T18:09:31.342Z,101448.97
2022-09-20T18:12:05.009Z,101458.91
2022-09-20T18:14:34.610Z,101453.69
2022-09-20T18:17:05.560Z,101461.00
2022-09-20T18:19:35.694Z,101460.47
2022-09-20T18:22:06.084Z,101463.41
2022-09-20T18:24:35.726Z,101459.25
2022-09-20T18:27:07.942Z,101465.59
2022-09-20T18:29:37.621Z,101471.94
2022-09-20T18:32:08.720Z,101474.81
2022-09-20T18:34:38.483Z,101472.31
2022-09-20T18:37:13.782Z,101482.25
2022-09-20T18:39:44.343Z,101478.13
2022-09-20T18:42:16.491Z,101485.47
2022-09-20T18:44:46.042Z,101482.19
2022-09-20T18:47:15.614Z,101478.84
2022-09-20T18:49:45.260Z,101487.84
2022-09-20T18:52:15.920Z,101481.75
2022-09-20T18:54:45.484Z,101481.03
2022-09-20T18:57:18.396Z,101489.97
2022-09-20T18:59:54.473Z,101487.53
2022-09-20T19:02:51.102Z,101485.03
2022-09-20T19:05:28.266Z,101486.88
2022-09-20T19:08:09.168Z,101483.53
2022-09-20T19:10:44.588Z,101483.66
2022-09-20T19:13:25.657Z,101489.91
2022-09-20T19:16:07.193Z,101496.28
2022-09-20T19:18:56.235Z,101494.63
2022-09-20T19:21:31.034Z,101496.53
2022-09-20T19:24:08.996Z,101499.31
2022-09-20T19:26:40.092Z,101503.91
2022-09-20T19:29:20.135Z,101501.38
2022-09-20T19:31:51.260Z,101508.53
2022-09-20T19:34:23.030Z,101523.72
2022-09-20T19:37:03.819Z,101517.69
2022-09-20T19:39:44.160Z,101525.75
2022-09-20T19:42:20.044Z,101523.34
2022-09-20T19:45:00.474Z,101539.31
2022-09-20T19:47:37.981Z,101543.81
2022-09-20T19:50:18.605Z,101542.22
2022-09-20T19:52:49.950Z,101542.31
2022-09-20T19:55:20.665Z,101547.72
2022-09-20T19:57:51.341Z,101548.78
2022-09-20T20:00:24.764Z,101559.56
2022-09-20T20:02:55.277Z,101557.84
2022-09-20T20:05:27.801Z,101551.00
2022-09-20T20:08:05.941Z,101556.41
2022-09-20T20:10:40.730Z,101560.97
2022-09-20T20:13:35.297Z,101557.56
2022-09-20T20:16:10.689Z,101562.09
2022-09-20T20:18:44.687Z,101561.34
2022-09-20T20:21:20.992Z,101563.28
2022-09-20T20:24:01.081Z,101564.38
2022-09-20T20:26:31.353Z,101567.13
2022-09-20T20:29:00.957Z,101567.28
2022-09-20T20:31:33.492Z,101566.47
2022-09-20T20:34:03.117Z,101569.19
2022-09-20T20:36:32.717Z,101572.72
2022-09-20T20:39:02.737Z,101578.16
2022-09-20T20:41:32.940Z,101575.63
2022-09-20T20:44:05.941Z,101582.72
2022-09-20T20:46:38.181Z,101585.44
2022-09-20T20:49:07.810Z,101582.03
2022-09-20T20:51:37.612Z,101588.28
2022-09-20T20:54:08.053Z,101587.56
2022-09-20T20:56:37.616Z,101585.84
2022-09-20T20:59:07.562Z,101595.63
2022-09-20T21:01:42.845Z,101600.13
2022-09-20T21:04:12.685Z,101603.69
2022-09-20T21:06:44.065Z,101600.28
2022-09-20T21:09:14.019Z,101597.72
2022-09-20T21:11:44.854Z,101595.19
2022-09-20T21:14:15.967Z,101599.69
2022-09-20T21:16:48.690Z,101599.81
2022-09-20T21:19:18.887Z,101610.47
2022-09-20T21:21:50.061Z,101605.31
2022-09-20T21:24:19.745Z,101607.97
2022-09-20T21:26:49.534Z,101609.84
2022-09-20T21:29:19.640Z,101605.53
2022-09-20T21:31:52.204Z,101608.22
2022-09-20T21:34:21.735Z,101610.97
2022-09-20T21:36:51.256Z,101609.34
2022-09-20T21:39:20.847Z,101612.94
2022-09-20T21:41:50.459Z,101617.28
2022-09-20T21:44:20.523Z,101613.75
2022-09-20T21:46:52.690Z,101616.44
2022-09-20T21:49:22.326Z,101617.44
2022-09-20T21:51:53.318Z,101619.25
2022-09-20T21:54:23.009Z,101623.69
2022-09-20T21:56:55.690Z,101618.47
2022-09-20T21:59:26.210Z,101621.31
2022-09-20T22:01:58.506Z,101620.59
2022-09-20T22:04:29.176Z,101623.22
2022-09-20T22:06:59.364Z,101626.84
2022-09-20T22:09:28.912Z,101631.41
2022-09-20T22:11:58.519Z,101628.06
2022-09-20T22:14:28.155Z,101633.41
2022-09-20T22:17:00.376Z,101626.44
2022-09-20T22:19:31.298Z,101633.50
2022-09-20T22:22:00.976Z,101634.41
2022-09-20T22:24:30.982Z,101628.44
2022-09-20T22:27:00.578Z,101636.38
2022-09-20T22:29:30.134Z,101631.97
2022-09-20T22:32:02.303Z,101628.59
2022-09-20T22:34:31.904Z,101630.34
2022-09-20T22:37:01.636Z,101633.03
2022-09-20T22:39:31.180Z,101634.84
2022-09-20T22:42:00.724Z,101638.41
2022-09-20T22:44:30.217Z,101641.94
2022-09-20T22:47:02.349Z,101642.94
2022-09-20T22:49:31.929Z,101636.69
2022-09-20T22:52:01.637Z,101641.19
2022-09-20T22:54:31.326Z,101642.13
2022-09-20T22:57:01.459Z,101641.19
2022-09-20T22:59:31.225Z,101640.47
2022-09-20T23:02:03.326Z,101636.19
2022-09-20T23:04:32.929Z,101639.81
2022-09-20T23:07:02.463Z,101639.84
2022-09-20T23:09:32.016Z,101639.84
2022-09-20T23:12:01.565Z,101646.91
2022-09-20T23:14:31.272Z,101648.72
2022-09-20T23:17:03.406Z,101642.59
2022-09-20T23:19:33.009Z,101639.16
2022-09-20T23:22:02.654Z,101629.59
2022-09-20T23:24:32.274Z,101634.00
2022-09-20T23:27:01.794Z,101633.94
2022-09-20T23:29:32.571Z,101630.59
2022-09-20T23:32:04.962Z,101634.13
2022-09-20T23:34:34.474Z,101637.63
2022-09-20T23:37:04.029Z,101640.31
2022-09-20T23:39:33.748Z,101637.81
2022-09-20T23:42:03.786Z,101641.16
2022-09-20T23:44:33.304Z,101645.69
2022-09-20T23:47:05.501Z,101643.09
2022-09-20T23:49:36.729Z,101640.53
2022-09-20T23:52:06.445Z,101636.22
2022-09-20T23:54:36.079Z,101632.72
2022-09-20T23:57:05.799Z,101637.13
2022-09-20T23:59:35.474Z,101632.84
